sensor_id;sensor_type;location;lat;lon;timestamp;pressure;altitude;pressure_sealevel;temperature;humidity
4767;BME280;2397;53.576;9.746;2023-07-13T00:01:31;101247.59;;;16.71;92.49
4767;BME280;2397;53.576;9.746;2023-07-13T00:03:59;101243.91;;;16.72;92.33
4767;BME280;2397;53.576;9.746;2023-07-13T00:06:26;101250.13;;;16.65;92.28
4767;BME280;2397;53.576;9.746;2023-07-13T00:08:56;101245.34;;;16.60;92.92
4767;BME280;2397;53.576;9.746;2023-07-13T00:11:23;101245.19;;;16.54;92.99
4767;BME280;2397;53.576;9.746;2023-07-13T00:13:50;101256.03;;;16.52;93.31
4767;BME280;2397;53.576;9.746;2023-07-13T00:16:17;101247.41;;;16.50;92.72
4767;BME280;2397;53.576;9.746;2023-07-13T00:18:45;101253.75;;;16.49;92.94
4767;BME280;2397;53.576;9.746;2023-07-13T00:21:12;101248.25;;;16.51;92.73
4767;BME280;2397;53.576;9.746;2023-07-13T00:23:41;101245.44;;;16.44;92.69
4767;BME280;2397;53.576;9.746;2023-07-13T00:26:09;101243.78;;;16.43;92.31
4767;BME280;2397;53.576;9.746;2023-07-13T00:28:38;101253.59;;;16.43;92.32
4767;BME280;2397;53.576;9.746;2023-07-13T00:31:07;101252.09;;;16.40;92.38
4767;BME280;2397;53.576;9.746;2023-07-13T00:33:35;101249.13;;;16.35;92.52
4767;BME280;2397;53.576;9.746;2023-07-13T00:36:02;101251.13;;;16.41;92.73
4767;BME280;2397;53.576;9.746;2023-07-13T00:38:29;101259.13;;;16.33;92.95
4767;BME280;2397;53.576;9.746;2023-07-13T00:40:56;101258.78;;;16.36;92.59
4767;BME280;2397;53.576;9.746;2023-07-13T00:43:25;101252.16;;;16.32;92.99
4767;BME280;2397;53.576;9.746;2023-07-13T00:48:26;101264.69;;;16.24;93.66
4767;BME280;2397;53.576;9.746;2023-07-13T00:50:55;101259.53;;;16.22;93.48
4767;BME280;2397;53.576;9.746;2023-07-13T00:53:25;101256.03;;;16.22;93.79
4767;BME280;2397;53.576;9.746;2023-07-13T00:55:53;101256.03;;;16.22;93.87
4767;BME280;2397;53.576;9.746;2023-07-13T00:58:22;101267.50;;;16.22;93.65
4767;BME280;2397;53.576;9.746;2023-07-13T01:00:50;101262.53;;;16.19;94.08
4767;BME280;2397;53.576;9.746;2023-07-13T01:03:18;101259.88;;;16.19;94.33
4767;BME280;2397;53.576;9.746;2023-07-13T01:05:47;101262.19;;;16.22;94.27
4767;BME280;2397;53.576;9.746;2023-07-13T01:08:15;101256.03;;;16.22;94.50
4767;BME280;2397;53.576;9.746;2023-07-13T01:10:51;101269.88;;;16.17;94.65
4767;BME280;2397;53.576;9.746;2023-07-13T01:13:18;101265.72;;;16.15;94.95
4767;BME280;2397;53.576;9.746;2023-07-13T01:15:48;101261.22;;;16.15;95.39
4767;BME280;2397;53.576;9.746;2023-07-13T01:18:18;101260.25;;;16.16;95.51
4767;BME280;2397;53.576;9.746;2023-07-13T01:21:01;101264.44;;;16.11;96.06
4767;BME280;2397;53.576;9.746;2023-07-13T01:23:29;101256.28;;;16.04;95.67
4767;BME280;2397;53.576;9.746;2023-07-13T01:25:57;101257.63;;;16.00;96.30
4767;BME280;2397;53.576;9.746;2023-07-13T01:28:26;101258.81;;;15.98;96.54
4767;BME280;2397;53.576;9.746;2023-07-13T01:30:55;101260.84;;;15.96;96.63
4767;BME280;2397;53.576;9.746;2023-07-13T01:33:22;101260.66;;;15.97;96.58
4767;BME280;2397;53.576;9.746;2023-07-13T01:35:49;101249.81;;;15.99;96.28
4767;BME280;2397;53.576;9.746;2023-07-13T01:38:20;101245.69;;;15.96;96.48
4767;BME280;2397;53.576;9.746;2023-07-13T01:40:47;101249.34;;;15.95;96.38
4767;BME280;2397;53.576;9.746;2023-07-13T01:43:14;101257.63;;;16.00;96.02
4767;BME280;2397;53.576;9.746;2023-07-13T01:45:41;101253.03;;;15.94;96.08
4767;BME280;2397;53.576;9.746;2023-07-13T01:48:12;101252.84;;;15.96;96.09
4767;BME280;2397;53.576;9.746;2023-07-13T01:50:40;101255.97;;;15.99;96.06
4767;BME280;2397;53.576;9.746;2023-07-13T01:53:08;101260.84;;;15.96;95.68
4767;BME280;2397;53.576;9.746;2023-07-13T01:55:35;101263.34;;;15.97;95.71
4767;BME280;2397;53.576;9.746;2023-07-13T01:58:02;101258.19;;;15.88;95.47
4767;BME280;2397;53.576;9.746;2023-07-13T02:00:29;101254.38;;;15.90;95.51
4767;BME280;2397;53.576;9.746;2023-07-13T02:02:55;101261.53;;;15.90;95.45
4767;BME280;2397;53.576;9.746;2023-07-13T02:05:23;101256.19;;;15.90;95.50
4767;BME280;2397;53.576;9.746;2023-07-13T02:07:50;101258.69;;;15.91;94.98
4767;BME280;2397;53.576;9.746;2023-07-13T02:10:17;101250.88;;;15.90;94.69
4767;BME280;2397;53.576;9.746;2023-07-13T02:12:44;101253.06;;;15.78;94.85
4767;BME280;2397;53.576;9.746;2023-07-13T02:15:11;101255.41;;;15.73;95.33
4767;BME280;2397;53.576;9.746;2023-07-13T02:17:37;101270.72;;;15.79;95.59
4767;BME280;2397;53.576;9.746;2023-07-13T02:20:05;101260.88;;;15.80;95.32
4767;BME280;2397;53.576;9.746;2023-07-13T02:22:32;101258.94;;;15.66;95.34
4767;BME280;2397;53.576;9.746;2023-07-13T02:24:59;101261.09;;;15.70;95.31
4767;BME280;2397;53.576;9.746;2023-07-13T02:27:26;101265.22;;;15.73;95.01
4767;BME280;2397;53.576;9.746;2023-07-13T02:29:52;101268.91;;;15.72;95.19
4767;BME280;2397;53.576;9.746;2023-07-13T02:32:21;101273.06;;;15.66;95.05
4767;BME280;2397;53.576;9.746;2023-07-13T02:34:47;101270.41;;;15.66;95.07
4767;BME280;2397;53.576;9.746;2023-07-13T02:37:14;101265.59;;;15.62;94.98
4767;BME280;2397;53.576;9.746;2023-07-13T02:39:41;101263.59;;;15.64;95.47
4767;BME280;2397;53.576;9.746;2023-07-13T02:42:07;101266.28;;;15.64;95.17
4767;BME280;2397;53.576;9.746;2023-07-13T02:44:34;101268.59;;;15.67;94.88
4767;BME280;2397;53.576;9.746;2023-07-13T02:47:01;101265.44;;;15.55;94.66
4767;BME280;2397;53.576;9.746;2023-07-13T02:49:28;101270.94;;;15.54;95.05
4767;BME280;2397;53.576;9.746;2023-07-13T02:51:55;101270.78;;;15.55;94.95
4767;BME280;2397;53.576;9.746;2023-07-13T02:54:22;101260.63;;;15.51;94.77
4767;BME280;2397;53.576;9.746;2023-07-13T02:56:49;101260.13;;;15.55;95.27
4767;BME280;2397;53.576;9.746;2023-07-13T02:59:16;101264.13;;;15.51;94.86
4767;BME280;2397;53.576;9.746;2023-07-13T03:01:42;101268.78;;;15.49;94.81
4767;BME280;2397;53.576;9.746;2023-07-13T03:04:10;101266.78;;;15.51;94.49
4767;BME280;2397;53.576;9.746;2023-07-13T03:06:37;101254.81;;;15.55;94.13
4767;BME280;2397;53.576;9.746;2023-07-13T03:09:04;101257.97;;;15.59;93.86
4767;BME280;2397;53.576;9.746;2023-07-13T03:11:33;101258.81;;;15.51;93.72
4767;BME280;2397;53.576;9.746;2023-07-13T03:14:12;101254.16;;;15.45;93.61
4767;BME280;2397;53.576;9.746;2023-07-13T03:16:40;101249.19;;;15.50;93.90
4767;BME280;2397;53.576;9.746;2023-07-13T03:19:07;101250.84;;;15.51;93.82
4767;BME280;2397;53.576;9.746;2023-07-13T03:21:33;101247.19;;;15.44;93.29
4767;BME280;2397;53.576;9.746;2023-07-13T03:24:01;101254.53;;;15.42;93.61
4767;BME280;2397;53.576;9.746;2023-07-13T03:26:27;101251.19;;;15.32;93.83
4767;BME280;2397;53.576;9.746;2023-07-13T03:28:55;101260.34;;;15.30;93.92
4767;BME280;2397;53.576;9.746;2023-07-13T03:31:25;101261.53;;;15.35;94.01
4767;BME280;2397;53.576;9.746;2023-07-13T03:33:52;101268.63;;;15.27;93.98
4767;BME280;2397;53.576;9.746;2023-07-13T03:36:21;101269.13;;;15.30;93.95
4767;BME280;2397;53.576;9.746;2023-07-13T03:38:56;101264.19;;;15.35;93.81
4767;BME280;2397;53.576;9.746;2023-07-13T03:41:29;101261.53;;;15.35;93.83
4767;BME280;2397;53.576;9.746;2023-07-13T03:43:58;101263.81;;;15.30;93.38
4767;BME280;2397;53.576;9.746;2023-07-13T03:46:26;101269.47;;;15.27;93.49
4767;BME280;2397;53.576;9.746;2023-07-13T03:48:52;101264.16;;;15.27;93.66
4767;BME280;2397;53.576;9.746;2023-07-13T03:51:20;101263.31;;;15.27;93.64
4767;BME280;2397;53.576;9.746;2023-07-13T03:53:47;101263.16;;;15.28;93.67
4767;BME280;2397;53.576;9.746;2023-07-13T03:56:17;101259.50;;;15.21;93.43
4767;BME280;2397;53.576;9.746;2023-07-13T03:58:46;101268.97;;;15.24;93.36
4767;BME280;2397;53.576;9.746;2023-07-13T04:01:18;101269.81;;;15.24;93.38
4767;BME280;2397;53.576;9.746;2023-07-13T04:03:45;101264.31;;;15.18;93.31
4767;BME280;2397;53.576;9.746;2023-07-13T04:06:19;101271.78;;;15.22;93.19
4767;BME280;2397;53.576;9.746;2023-07-13T04:08:52;101271.00;;;15.22;93.22
4767;BME280;2397;53.576;9.746;2023-07-13T04:11:21;101271.31;;;15.19;92.97
4767;BME280;2397;53.576;9.746;2023-07-13T04:13:48;101269.47;;;15.19;92.86
4767;BME280;2397;53.576;9.746;2023-07-13T04:16:17;101269.81;;;15.16;93.28
4767;BME280;2397;53.576;9.746;2023-07-13T04:18:45;101275.78;;;15.18;93.60
4767;BME280;2397;53.576;9.746;2023-07-13T04:21:14;101277.13;;;15.22;93.45
4767;BME280;2397;53.576;9.746;2023-07-13T04:23:41;101290.56;;;15.21;93.58
4767;BME280;2397;53.576;9.746;2023-07-13T04:26:07;101285.25;;;15.21;93.32
4767;BME280;2397;53.576;9.746;2023-07-13T04:28:34;101283.78;;;15.18;93.30
4767;BME280;2397;53.576;9.746;2023-07-13T04:31:02;101283.94;;;15.17;93.28
4767;BME280;2397;53.576;9.746;2023-07-13T04:33:28;101284.44;;;15.20;93.77
4767;BME280;2397;53.576;9.746;2023-07-13T04:35:55;101285.78;;;15.24;93.61
4767;BME280;2397;53.576;9.746;2023-07-13T04:38:25;101278.44;;;15.26;94.10
4767;BME280;2397;53.576;9.746;2023-07-13T04:40:58;101282.78;;;15.35;94.19
4767;BME280;2397;53.576;9.746;2023-07-13T04:43:25;101285.59;;;15.42;93.39
4767;BME280;2397;53.576;9.746;2023-07-13T04:45:52;101292.75;;;15.41;92.48
4767;BME280;2397;53.576;9.746;2023-07-13T04:48:20;101288.75;;;15.37;92.69
4767;BME280;2397;53.576;9.746;2023-07-13T04:50:46;101284.91;;;15.32;92.75
4767;BME280;2397;53.576;9.746;2023-07-13T04:53:14;101294.09;;;15.37;93.48
4767;BME280;2397;53.576;9.746;2023-07-13T04:55:41;101291.75;;;15.42;93.76
4767;BME280;2397;53.576;9.746;2023-07-13T04:58:07;101296.56;;;15.47;93.50
4767;BME280;2397;53.576;9.746;2023-07-13T05:00:34;101295.41;;;15.57;94.17
4767;BME280;2397;53.576;9.746;2023-07-13T05:03:03;101296.03;;;15.59;93.63
4767;BME280;2397;53.576;9.746;2023-07-13T05:05:30;101298.38;;;15.62;93.00
4767;BME280;2397;53.576;9.746;2023-07-13T05:07:56;101295.50;;;15.72;92.65
4767;BME280;2397;53.576;9.746;2023-07-13T05:10:23;101303.22;;;16.05;91.97
4767;BME280;2397;53.576;9.746;2023-07-13T05:12:50;101307.06;;;15.95;91.59
4767;BME280;2397;53.576;9.746;2023-07-13T05:15:18;101304.28;;;15.88;91.40
4767;BME280;2397;53.576;9.746;2023-07-13T05:17:48;101306.59;;;15.91;91.89
4767;BME280;2397;53.576;9.746;2023-07-13T05:20:16;101314.94;;;15.88;91.69
4767;BME280;2397;53.576;9.746;2023-07-13T05:22:43;101312.09;;;15.90;91.20
4767;BME280;2397;53.576;9.746;2023-07-13T05:25:10;101313.75;;;15.91;92.02
4767;BME280;2397;53.576;9.746;2023-07-13T05:27:37;101318.44;;;15.89;92.35
4767;BME280;2397;53.576;9.746;2023-07-13T05:30:04;101320.56;;;15.93;92.81
4767;BME280;2397;53.576;9.746;2023-07-13T05:32:31;101313.53;;;16.00;92.88
4767;BME280;2397;53.576;9.746;2023-07-13T05:34:57;101323.19;;;16.09;92.88
4767;BME280;2397;53.576;9.746;2023-07-13T05:37:24;101324.84;;;16.10;93.01
4767;BME280;2397;53.576;9.746;2023-07-13T05:39:51;101326.00;;;16.08;93.26
4767;BME280;2397;53.576;9.746;2023-07-13T05:42:17;101326.19;;;16.06;92.52
4767;BME280;2397;53.576;9.746;2023-07-13T05:44:44;101331.81;;;16.11;92.57
4767;BME280;2397;53.576;9.746;2023-07-13T05:47:10;101331.13;;;16.17;91.83
4767;BME280;2397;53.576;9.746;2023-07-13T05:49:37;101338.81;;;16.12;91.34
4767;BME280;2397;53.576;9.746;2023-07-13T05:52:04;101337.81;;;16.13;91.80
4767;BME280;2397;53.576;9.746;2023-07-13T05:54:30;101341.13;;;16.15;91.68
4767;BME280;2397;53.576;9.746;2023-07-13T05:56:57;101335.94;;;16.22;91.63
4767;BME280;2397;53.576;9.746;2023-07-13T05:59:23;101334.13;;;16.14;91.59
4767;BME280;2397;53.576;9.746;2023-07-13T06:01:50;101333.00;;;16.09;91.38
4767;BME280;2397;53.576;9.746;2023-07-13T06:04:19;101333.13;;;16.15;91.66
4767;BME280;2397;53.576;9.746;2023-07-13T06:06:47;101338.13;;;16.18;91.83
4767;BME280;2397;53.576;9.746;2023-07-13T06:09:14;101341.53;;;16.35;91.47
4767;BME280;2397;53.576;9.746;2023-07-13T06:11:41;101348.38;;;16.29;90.11
4767;BME280;2397;53.576;9.746;2023-07-13T06:14:07;101347.41;;;16.22;90.28
4767;BME280;2397;53.576;9.746;2023-07-13T06:16:34;101343.41;;;16.26;90.00
4767;BME280;2397;53.576;9.746;2023-07-13T06:19:00;101348.53;;;16.36;90.99
4767;BME280;2397;53.576;9.746;2023-07-13T06:21:28;101350.66;;;16.40;90.33
4767;BME280;2397;53.576;9.746;2023-07-13T06:23:55;101347.66;;;16.51;89.58
4767;BME280;2397;53.576;9.746;2023-07-13T06:26:21;101359.03;;;16.45;89.33
4767;BME280;2397;53.576;9.746;2023-07-13T06:28:48;101359.63;;;16.55;90.37
4767;BME280;2397;53.576;9.746;2023-07-13T06:31:15;101355.25;;;16.62;89.67
4767;BME280;2397;53.576;9.746;2023-07-13T06:33:43;101358.66;;;16.48;88.31
4767;BME280;2397;53.576;9.746;2023-07-13T06:36:10;101369.25;;;16.64;88.47
4767;BME280;2397;53.576;9.746;2023-07-13T06:38:37;101368.13;;;16.59;88.98
4767;BME280;2397;53.576;9.746;2023-07-13T06:41:06;101368.41;;;16.64;89.70
4767;BME280;2397;53.576;9.746;2023-07-13T06:43:33;101364.22;;;16.69;89.51
4767;BME280;2397;53.576;9.746;2023-07-13T06:46:00;101374.81;;;16.77;89.56
4767;BME280;2397;53.576;9.746;2023-07-13T06:48:27;101375.44;;;16.88;89.10
4767;BME280;2397;53.576;9.746;2023-07-13T06:50:54;101369.41;;;16.94;88.27
4767;BME280;2397;53.576;9.746;2023-07-13T06:53:22;101370.47;;;17.07;87.71
4767;BME280;2397;53.576;9.746;2023-07-13T06:55:49;101372.59;;;17.12;87.52
4767;BME280;2397;53.576;9.746;2023-07-13T06:58:17;101368.09;;;17.12;86.84
4767;BME280;2397;53.576;9.746;2023-07-13T07:00:44;101368.69;;;17.22;87.00
4767;BME280;2397;53.576;9.746;2023-07-13T07:03:10;101361.22;;;17.18;86.90
4767;BME280;2397;53.576;9.746;2023-07-13T07:05:37;101359.16;;;17.28;86.89
4767;BME280;2397;53.576;9.746;2023-07-13T07:08:04;101364.88;;;17.39;87.20
4767;BME280;2397;53.576;9.746;2023-07-13T07:10:31;101370.13;;;17.55;86.34
4767;BME280;2397;53.576;9.746;2023-07-13T07:12:58;101368.91;;;17.58;85.81
4767;BME280;2397;53.576;9.746;2023-07-13T07:15:25;101374.84;;;17.68;85.82
4767;BME280;2397;53.576;9.746;2023-07-13T07:17:52;101364.53;;;17.65;85.62
4767;BME280;2397;53.576;9.746;2023-07-13T07:20:19;101364.78;;;17.70;85.61
4767;BME280;2397;53.576;9.746;2023-07-13T07:22:47;101364.44;;;17.73;85.11
4767;BME280;2397;53.576;9.746;2023-07-13T07:25:14;101364.88;;;17.76;84.69
4767;BME280;2397;53.576;9.746;2023-07-13T07:27:40;101361.84;;;17.65;85.05
4767;BME280;2397;53.576;9.746;2023-07-13T07:30:10;101363.41;;;17.59;85.26
4767;BME280;2397;53.576;9.746;2023-07-13T07:32:40;101363.69;;;17.64;85.68
4767;BME280;2397;53.576;9.746;2023-07-13T07:35:22;101370.03;;;17.63;84.85
4767;BME280;2397;53.576;9.746;2023-07-13T07:37:49;101374.00;;;17.67;85.03
4767;BME280;2397;53.576;9.746;2023-07-13T07:40:17;101368.94;;;17.72;85.28
4767;BME280;2397;53.576;9.746;2023-07-13T07:42:46;101372.34;;;17.81;85.49
4767;BME280;2397;53.576;9.746;2023-07-13T07:45:13;101371.47;;;17.88;85.14
4767;BME280;2397;53.576;9.746;2023-07-13T07:47:40;101373.09;;;17.89;83.88
4767;BME280;2397;53.576;9.746;2023-07-13T07:50:07;101369.25;;;17.77;84.66
4767;BME280;2397;53.576;9.746;2023-07-13T07:52:34;101367.69;;;17.83;84.29
4767;BME280;2397;53.576;9.746;2023-07-13T07:55:01;101361.22;;;17.92;84.40
4767;BME280;2397;53.576;9.746;2023-07-13T07:57:30;101369.25;;;18.06;84.06
4767;BME280;2397;53.576;9.746;2023-07-13T08:00:00;101370.56;;;18.10;83.17
4767;BME280;2397;53.576;9.746;2023-07-13T08:02:39;101373.03;;;18.12;83.09
4767;BME280;2397;53.576;9.746;2023-07-13T08:05:27;101365.94;;;18.19;82.98
4767;BME280;2397;53.576;9.746;2023-07-13T08:07:57;101357.66;;;18.28;82.79
4767;BME280;2397;53.576;9.746;2023-07-13T08:10:23;101368.34;;;18.28;82.88
4767;BME280;2397;53.576;9.746;2023-07-13T08:12:50;101367.06;;;18.39;82.11
4767;BME280;2397;53.576;9.746;2023-07-13T08:15:19;101370.94;;;18.36;81.66
4767;BME280;2397;53.576;9.746;2023-07-13T08:17:48;101365.84;;;18.41;82.02
4767;BME280;2397;53.576;9.746;2023-07-13T08:20:15;101366.88;;;18.40;81.81
4767;BME280;2397;53.576;9.746;2023-07-13T08:22:41;101371.09;;;18.49;82.77
4767;BME280;2397;53.576;9.746;2023-07-13T08:25:08;101383.31;;;18.73;83.02
4767;BME280;2397;53.576;9.746;2023-07-13T08:27:34;101381.84;;;18.70;79.93
4767;BME280;2397;53.576;9.746;2023-07-13T08:30:02;101379.59;;;18.74;80.52
4767;BME280;2397;53.576;9.746;2023-07-13T08:32:28;101370.00;;;18.79;77.72
4767;BME280;2397;53.576;9.746;2023-07-13T08:34:55;101372.72;;;19.00;77.90
4767;BME280;2397;53.576;9.746;2023-07-13T08:37:21;101367.13;;;18.95;77.32
4767;BME280;2397;53.576;9.746;2023-07-13T08:39:48;101369.00;;;19.01;76.79
4767;BME280;2397;53.576;9.746;2023-07-13T08:47:51;101380.19;;;19.47;75.20
4767;BME280;2397;53.576;9.746;2023-07-13T08:50:23;101374.31;;;19.58;74.81
4767;BME280;2397;53.576;9.746;2023-07-13T08:52:53;101360.34;;;19.62;72.97
4767;BME280;2397;53.576;9.746;2023-07-13T08:55:26;101365.50;;;19.91;73.67
4767;BME280;2397;53.576;9.746;2023-07-13T08:58:11;101375.97;;;20.14;71.80
4767;BME280;2397;53.576;9.746;2023-07-13T09:00:50;101366.56;;;19.97;71.66
4767;BME280;2397;53.576;9.746;2023-07-13T09:03:22;101365.66;;;20.11;72.44
4767;BME280;2397;53.576;9.746;2023-07-13T09:05:54;101368.03;;;19.99;71.73
4767;BME280;2397;53.576;9.746;2023-07-13T09:08:38;101367.44;;;20.04;72.69
4767;BME280;2397;53.576;9.746;2023-07-13T09:14:13;101369.84;;;20.27;70.61
4767;BME280;2397;53.576;9.746;2023-07-13T09:16:44;101369.25;;;19.97;68.93
4767;BME280;2397;53.576;9.746;2023-07-13T09:19:20;101369.84;;;20.27;68.89
4767;BME280;2397;53.576;9.746;2023-07-13T09:21:49;101371.03;;;20.11;68.45
4767;BME280;2397;53.576;9.746;2023-07-13T09:24:55;101369.97;;;19.84;69.19
4767;BME280;2397;53.576;9.746;2023-07-13T09:27:30;101368.84;;;20.00;70.69
4767;BME280;2397;53.576;9.746;2023-07-13T09:30:17;101369.72;;;20.07;70.52
4767;BME280;2397;53.576;9.746;2023-07-13T09:32:50;101366.72;;;20.17;69.42
4767;BME280;2397;53.576;9.746;2023-07-13T09:35:25;101367.47;;;20.45;69.64
4767;BME280;2397;53.576;9.746;2023-07-13T09:38:13;101363.50;;;20.34;68.80
4767;BME280;2397;53.576;9.746;2023-07-13T09:40:56;101359.66;;;20.50;67.61
4767;BME280;2397;53.576;9.746;2023-07-13T09:43:26;101370.59;;;20.55;67.24
4767;BME280;2397;53.576;9.746;2023-07-13T09:45:55;101375.75;;;20.50;67.28
4767;BME280;2397;53.576;9.746;2023-07-13T09:48:22;101376.63;;;20.23;66.73
4767;BME280;2397;53.576;9.746;2023-07-13T09:50:48;101381.75;;;20.11;68.25
4767;BME280;2397;53.576;9.746;2023-07-13T09:53:17;101385.88;;;20.14;69.90
4767;BME280;2397;53.576;9.746;2023-07-13T09:55:46;101381.31;;;20.14;69.12
4767;BME280;2397;53.576;9.746;2023-07-13T09:58:21;101386.63;;;20.08;68.41
4767;BME280;2397;53.576;9.746;2023-07-13T10:01:01;101383.88;;;20.22;68.09
4767;BME280;2397;53.576;9.746;2023-07-13T10:03:36;101372.91;;;20.58;66.64
4767;BME280;2397;53.576;9.746;2023-07-13T10:06:14;101380.28;;;20.56;67.53
4767;BME280;2397;53.576;9.746;2023-07-13T10:08:40;101376.53;;;20.44;64.91
4767;BME280;2397;53.576;9.746;2023-07-13T10:13:56;101360.44;;;20.97;60.27
4767;BME280;2397;53.576;9.746;2023-07-13T10:16:28;101352.66;;;21.35;59.96
4767;BME280;2397;53.576;9.746;2023-07-13T10:19:24;101359.06;;;21.47;58.71
4767;BME280;2397;53.576;9.746;2023-07-13T10:21:57;101364.00;;;21.56;59.95
4767;BME280;2397;53.576;9.746;2023-07-13T10:24:33;101361.97;;;21.71;57.17
4767;BME280;2397;53.576;9.746;2023-07-13T10:27:15;101360.28;;;21.57;58.41
4767;BME280;2397;53.576;9.746;2023-07-13T10:29:53;101360.09;;;21.52;59.46
4767;BME280;2397;53.576;9.746;2023-07-13T10:32:24;101366.69;;;21.56;58.58
4767;BME280;2397;53.576;9.746;2023-07-13T10:34:51;101351.59;;;21.23;57.25
4767;BME280;2397;53.576;9.746;2023-07-13T10:37:22;101351.00;;;21.21;57.21
4767;BME280;2397;53.576;9.746;2023-07-13T10:39:50;101349.97;;;21.35;55.76
4767;BME280;2397;53.576;9.746;2023-07-13T10:42:31;101344.16;;;21.57;54.66
4767;BME280;2397;53.576;9.746;2023-07-13T10:44:59;101341.88;;;21.54;53.52
4767;BME280;2397;53.576;9.746;2023-07-13T10:47:26;101345.44;;;21.42;54.91
4767;BME280;2397;53.576;9.746;2023-07-13T10:49:56;101365.88;;;21.49;58.23
4767;BME280;2397;53.576;9.746;2023-07-13T10:52:47;101353.25;;;21.63;55.80
4767;BME280;2397;53.576;9.746;2023-07-13T10:58:18;101363.16;;;21.23;56.21
4767;BME280;2397;53.576;9.746;2023-07-13T11:00:49;101365.03;;;21.23;56.65
4767;BME280;2397;53.576;9.746;2023-07-13T11:03:18;101365.66;;;21.18;56.97
4767;BME280;2397;53.576;9.746;2023-07-13T11:05:49;101354.69;;;21.07;56.94
4767;BME280;2397;53.576;9.746;2023-07-13T11:08:20;101369.94;;;21.06;60.63
4767;BME280;2397;53.576;9.746;2023-07-13T11:10:57;101371.03;;;21.18;60.20
4767;BME280;2397;53.576;9.746;2023-07-13T11:24:56;101375.19;;;21.86;58.87
4767;BME280;2397;53.576;9.746;2023-07-13T11:27:40;101351.97;;;22.04;54.96
4767;BME280;2397;53.576;9.746;2023-07-13T11:32:50;101370.22;;;21.63;56.81
4767;BME280;2397;53.576;9.746;2023-07-13T11:35:26;101359.59;;;22.20;55.47
4767;BME280;2397;53.576;9.746;2023-07-13T11:37:54;101359.34;;;22.35;54.78
4767;BME280;2397;53.576;9.746;2023-07-13T11:40:23;101359.00;;;22.12;57.28
4767;BME280;2397;53.576;9.746;2023-07-13T11:42:59;101357.63;;;21.90;55.87
4767;BME280;2397;53.576;9.746;2023-07-13T11:45:28;101372.72;;;21.84;57.02
4767;BME280;2397;53.576;9.746;2023-07-13T11:48:25;101371.69;;;21.79;57.66
4767;BME280;2397;53.576;9.746;2023-07-13T11:51:01;101389.63;;;21.52;58.46
4767;BME280;2397;53.576;9.746;2023-07-13T11:53:34;101388.78;;;21.26;57.90
4767;BME280;2397;53.576;9.746;2023-07-13T11:56:03;101395.38;;;21.10;59.31
4767;BME280;2397;53.576;9.746;2023-07-13T11:58:31;101429.13;;;20.85;62.74
4767;BME280;2397;53.576;9.746;2023-07-13T12:01:00;101450.19;;;20.14;69.85
4767;BME280;2397;53.576;9.746;2023-07-13T12:03:28;101475.06;;;19.59;75.05
4767;BME280;2397;53.576;9.746;2023-07-13T12:06:05;101479.19;;;18.90;76.03
4767;BME280;2397;53.576;9.746;2023-07-13T12:08:38;101489.28;;;18.08;80.97
4767;BME280;2397;53.576;9.746;2023-07-13T12:11:16;101493.06;;;17.23;85.25
4767;BME280;2397;53.576;9.746;2023-07-13T12:13:44;101490.38;;;16.92;87.40
4767;BME280;2397;53.576;9.746;2023-07-13T12:16:15;101484.25;;;16.92;88.93
4767;BME280;2397;53.576;9.746;2023-07-13T12:18:43;101488.31;;;17.11;88.81
4767;BME280;2397;53.576;9.746;2023-07-13T12:21:17;101498.00;;;17.34;90.46
4767;BME280;2397;53.576;9.746;2023-07-13T12:23:47;101488.19;;;17.57;87.86
4767;BME280;2397;53.576;9.746;2023-07-13T12:26:17;101498.53;;;18.20;88.56
4767;BME280;2397;53.576;9.746;2023-07-13T12:28:49;101504.78;;;19.14;85.12
4767;BME280;2397;53.576;9.746;2023-07-13T12:34:08;101500.09;;;19.16;86.02
4767;BME280;2397;53.576;9.746;2023-07-13T12:36:36;101505.69;;;19.21;86.27
4767;BME280;2397;53.576;9.746;2023-07-13T12:39:13;101500.66;;;19.26;80.63
4767;BME280;2397;53.576;9.746;2023-07-13T12:41:40;101512.28;;;19.54;78.50
4767;BME280;2397;53.576;9.746;2023-07-13T12:44:12;101520.19;;;19.62;77.07
4767;BME280;2397;53.576;9.746;2023-07-13T12:46:52;101524.75;;;18.97;75.18
4767;BME280;2397;53.576;9.746;2023-07-13T12:49:24;101523.75;;;18.54;77.71
4767;BME280;2397;53.576;9.746;2023-07-13T12:51:55;101539.72;;;18.25;80.18
4767;BME280;2397;53.576;9.746;2023-07-13T12:54:22;101537.59;;;17.98;83.24
4767;BME280;2397;53.576;9.746;2023-07-13T12:56:51;101526.88;;;17.84;84.65
4767;BME280;2397;53.576;9.746;2023-07-13T12:59:21;101530.16;;;17.94;83.88
4767;BME280;2397;53.576;9.746;2023-07-13T13:01:49;101534.22;;;18.04;83.83
4767;BME280;2397;53.576;9.746;2023-07-13T13:04:16;101535.09;;;18.19;84.60
4767;BME280;2397;53.576;9.746;2023-07-13T13:06:48;101538.31;;;18.66;81.85
4767;BME280;2397;53.576;9.746;2023-07-13T13:09:17;101537.41;;;18.88;80.87
4767;BME280;2397;53.576;9.746;2023-07-13T13:11:44;101532.78;;;18.82;79.86
4767;BME280;2397;53.576;9.746;2023-07-13T13:14:11;101540.28;;;18.72;78.02
4767;BME280;2397;53.576;9.746;2023-07-13T13:16:48;101543.31;;;18.98;82.62
4767;BME280;2397;53.576;9.746;2023-07-13T13:19:24;101542.66;;;18.82;81.25
4767;BME280;2397;53.576;9.746;2023-07-13T13:21:53;101546.16;;;18.68;79.75
4767;BME280;2397;53.576;9.746;2023-07-13T13:24:22;101551.97;;;18.71;82.93
4767;BME280;2397;53.576;9.746;2023-07-13T13:26:51;101552.72;;;18.65;81.93
4767;BME280;2397;53.576;9.746;2023-07-13T13:29:20;101555.22;;;18.81;80.85
4767;BME280;2397;53.576;9.746;2023-07-13T13:31:47;101551.69;;;18.95;79.09
4767;BME280;2397;53.576;9.746;2023-07-13T13:34:16;101549.56;;;19.05;77.60
4767;BME280;2397;53.576;9.746;2023-07-13T13:36:43;101556.59;;;19.06;81.03
4767;BME280;2397;53.576;9.746;2023-07-13T13:39:22;101565.41;;;19.07;82.88
4767;BME280;2397;53.576;9.746;2023-07-13T13:41:51;101561.19;;;18.98;80.44
4767;BME280;2397;53.576;9.746;2023-07-13T13:44:19;101562.69;;;18.86;78.23
4767;BME280;2397;53.576;9.746;2023-07-13T13:46:48;101557.78;;;19.04;77.58
4767;BME280;2397;53.576;9.746;2023-07-13T13:49:19;101564.13;;;19.17;78.47
4767;BME280;2397;53.576;9.746;2023-07-13T13:51:48;101551.13;;;19.29;75.05
4767;BME280;2397;53.576;9.746;2023-07-13T13:54:15;101553.63;;;20.29;76.70
4767;BME280;2397;53.576;9.746;2023-07-13T13:56:43;101555.94;;;20.94;72.47